Time;durP1;ratioP1;P1;durP2;ratioP2;P2;SDS_P1;SDS_P2;PMS_P1;PMS_P2;Temp;Humidity;BMP_temperature;BMP_pressure;BME280_temperature;BME280_humidity;BME280_pressure;Samples;Min_cycle;Max_cycle;Signal;HPM_P1;HPM_P2
2021/12/14 00:00:26;;;;;;;1.05;0.60;;;;;;;14.48;37.90;97473.03;5035055;28;20148;-30
2021/12/14 00:02:52;;;;;;;1.27;0.80;;;;;;;14.49;38.12;97481.97;5035209;28;20046;-30
2021/12/14 00:05:20;;;;;;;1.92;0.90;;;;;;;14.42;37.99;97480.19;5035002;28;20064;-31
2021/12/14 00:07:46;;;;;;;1.63;1.10;;;;;;;14.43;38.20;97481.72;5035142;28;20029;-30
2021/12/14 00:10:43;;;;;;;2.95;1.50;;;;;;;14.48;37.95;97469.53;5035039;28;20040;-30
2021/12/14 00:13:19;;;;;;;2.33;1.50;;;;;;;14.42;38.25;97466.56;5034711;28;20483;-30
2021/12/14 00:15:46;;;;;;;3.58;2.20;;;;;;;14.44;38.37;97474.31;5035111;28;20036;-31
2021/12/14 00:18:13;;;;;;;4.45;1.98;;;;;;;14.44;38.40;97477.03;5034855;28;20474;-31
2021/12/14 00:20:53;;;;;;;4.90;2.65;;;;;;;14.43;38.53;97472.78;5034807;28;20480;-31
2021/12/14 00:26:11;;;;;;;6.72;3.35;;;;;;;14.42;38.73;97474.75;5023697;28;20044;-30
2021/12/14 00:28:37;;;;;;;5.75;3.70;;;;;;;14.41;38.91;97477.88;5034677;28;20036;-30
2021/12/14 00:31:09;;;;;;;6.30;3.67;;;;;;;14.42;38.89;97477.47;5034789;28;20025;-30
2021/12/14 00:33:37;;;;;;;6.50;3.50;;;;;;;14.33;39.08;97475.31;5034665;28;20101;-31
2021/12/14 00:36:09;;;;;;;4.85;3.10;;;;;;;14.40;38.84;97474.38;5034439;28;20093;-31
2021/12/14 00:38:36;;;;;;;5.30;2.63;;;;;;;14.40;38.74;97479.09;5033237;28;20022;-30
2021/12/14 00:41:11;;;;;;;4.47;2.60;;;;;;;14.37;39.03;97467.03;5034196;28;20083;-30
2021/12/14 00:43:37;;;;;;;4.88;2.72;;;;;;;14.36;38.98;97477.16;5034188;28;20022;-31
2021/12/14 00:46:04;;;;;;;4.30;2.63;;;;;;;14.35;39.02;97477.59;5034111;28;20025;-31
2021/12/14 00:48:30;;;;;;;4.93;2.70;;;;;;;14.38;38.75;97477.50;5034521;28;20367;-30
2021/12/14 00:50:58;;;;;;;5.35;3.08;;;;;;;14.40;38.82;97474.38;5034184;28;20040;-30
2021/12/14 00:53:24;;;;;;;4.72;2.88;;;;;;;14.35;38.88;97470.16;5034238;28;20051;-30
2021/12/14 00:55:55;;;;;;;4.85;2.65;;;;;;;14.37;38.68;97475.22;5034116;28;20067;-30
2021/12/14 00:58:22;;;;;;;5.22;2.80;;;;;;;14.32;39.01;97479.22;5034055;28;20095;-30
2021/12/14 01:00:57;;;;;;;4.28;2.33;;;;;;;14.39;38.65;97483.75;5033993;28;20046;-30
2021/12/14 01:03:25;;;;;;;4.07;2.38;;;;;;;14.44;38.74;97480.53;5033913;28;20044;-30
2021/12/14 01:05:51;;;;;;;4.65;2.33;;;;;;;14.32;39.09;97481.97;5033225;28;20018;-30
2021/12/14 01:08:20;;;;;;;4.15;2.10;;;;;;;14.35;38.88;97475.63;5033853;28;20079;-30
2021/12/14 01:11:03;;;;;;;4.20;2.33;;;;;;;14.28;38.92;97475.81;5033942;28;20029;-30
2021/12/14 01:13:32;;;;;;;3.85;2.10;;;;;;;14.26;38.83;97472.72;5034019;28;20021;-30
2021/12/14 01:16:31;;;;;;;3.47;1.85;;;;;;;14.32;38.87;97483.91;5033723;28;20044;-30
2021/12/14 01:19:12;;;;;;;2.85;1.98;;;;;;;14.29;38.94;97479.31;5034352;28;20025;-30
2021/12/14 01:22:33;;;;;;;3.13;2.03;;;;;;;14.35;38.87;97486.53;5033723;28;20021;-30
2021/12/14 01:27:10;;;;;;;3.10;1.60;;;;;;;14.34;38.71;97478.81;5034152;28;20037;-30
2021/12/14 01:29:37;;;;;;;3.58;1.60;;;;;;;14.27;38.93;97476.22;5033677;28;20025;-30
2021/12/14 01:32:04;;;;;;;3.10;1.60;;;;;;;14.19;38.69;97480.31;5033598;28;20029;-30
2021/12/14 01:34:32;;;;;;;3.33;1.70;;;;;;;14.17;38.82;97472.56;5033369;28;20025;-31
2021/12/14 01:37:06;;;;;;;2.30;1.27;;;;;;;14.17;39.12;97477.25;5033421;28;20021;-30
2021/12/14 01:42:10;;;;;;;2.85;1.40;;;;;;;14.21;38.97;97489.63;5031434;28;20029;-31
2021/12/14 01:44:42;;;;;;;2.15;1.33;;;;;;;14.24;38.97;97477.84;5033015;28;20513;-30
2021/12/14 01:47:16;;;;;;;2.42;1.20;;;;;;;14.21;38.47;97472.47;5033330;28;20033;-30
2021/12/14 01:49:42;;;;;;;1.83;1.10;;;;;;;14.14;38.79;97478.84;5033200;28;20033;-30
2021/12/14 01:52:19;;;;;;;1.83;1.10;;;;;;;14.22;38.40;97479.44;5033297;28;20079;-30
2021/12/14 01:54:52;;;;;;;2.17;1.30;;;;;;;14.15;38.88;97474.94;5033334;28;20026;-30
2021/12/14 01:57:20;;;;;;;;;;;;;;;14.19;38.47;97480.31;5032273;28;20036;-30
2021/12/14 01:59:47;;;;;;;1.60;1.02;;;;;;;14.17;38.89;97471.78;5033139;28;19971;-30
2021/12/14 02:02:30;;;;;;;2.05;0.93;;;;;;;14.12;38.58;97472.28;5032938;28;20030;-31
2021/12/14 02:04:57;;;;;;;1.58;0.98;;;;;;;14.16;38.81;97467.53;5033275;28;20026;-30
2021/12/14 02:07:26;;;;;;;2.42;1.10;;;;;;;14.14;38.79;97472.63;5033135;28;20189;-31
2021/12/14 02:10:02;;;;;;;1.35;0.77;;;;;;;14.08;38.82;97452.50;5033246;28;20022;-30
2021/12/14 02:12:29;;;;;;;1.75;0.80;;;;;;;14.24;38.17;97461.47;5031779;28;20022;-31
2021/12/14 02:15:10;;;;;;;1.30;0.90;;;;;;;14.14;38.19;97462.47;5033111;28;20055;-30
2021/12/14 02:17:39;;;;;;;1.83;1.00;;;;;;;14.15;38.61;97457.78;5034396;28;20029;-30
2021/12/14 02:20:06;;;;;;;2.38;1.20;;;;;;;14.17;38.12;97460.88;5036945;28;20029;-30
2021/12/14 02:22:32;;;;;;;1.10;0.80;;;;;;;14.17;38.44;97456.19;5037039;28;20029;-30
2021/12/14 02:24:57;;;;;;;1.40;0.80;;;;;;;14.19;38.38;97459.25;5035796;28;20030;-30
2021/12/14 02:27:23;;;;;;;2.05;0.90;;;;;;;14.16;38.18;97448.44;5036826;28;20025;-31
2021/12/14 02:29:50;;;;;;;1.17;0.73;;;;;;;14.19;38.41;97461.22;5037063;28;20178;-30
2021/12/14 02:32:20;;;;;;;1.60;0.80;;;;;;;14.21;38.06;97445.97;5036786;28;20433;-30
2021/12/14 02:34:55;;;;;;;1.42;1.02;;;;;;;14.13;38.40;97452.00;5036773;28;20127;-30
2021/12/14 02:37:35;;;;;;;1.55;1.05;;;;;;;14.15;38.20;97444.94;5036634;28;20030;-31
2021/12/14 02:40:15;;;;;;;1.73;1.00;;;;;;;14.13;38.25;97449.25;5036636;28;20034;-31
2021/12/14 02:42:41;;;;;;;1.23;0.80;;;;;;;14.11;38.27;97441.50;5036541;28;20021;-30
2021/12/14 02:45:08;;;;;;;1.38;0.88;;;;;;;14.01;38.18;97442.53;5035321;28;20017;-30
2021/12/14 02:47:34;;;;;;;1.13;0.80;;;;;;;14.01;38.28;97443.28;5036429;28;20471;-30
2021/12/14 02:50:00;;;;;;;1.40;0.90;;;;;;;14.07;38.32;97440.84;5036444;28;20107;-30
2021/12/14 02:52:36;;;;;;;1.63;0.88;;;;;;;14.02;38.11;97444.81;5036768;28;20049;-30
2021/12/14 02:55:24;;;;;;;1.10;0.80;;;;;;;14.08;38.27;97433.41;5036684;28;20083;-30
2021/12/14 02:57:53;;;;;;;1.27;0.80;;;;;;;14.07;38.21;97438.09;5036556;28;20380;-30
2021/12/14 03:00:27;;;;;;;1.17;0.70;;;;;;;14.06;37.62;97435.81;5036005;28;20055;-30
2021/12/14 03:02:53;;;;;;;0.88;0.70;;;;;;;14.04;38.07;97438.94;5036564;28;20091;-30
2021/12/14 03:05:27;;;;;;;1.90;0.70;;;;;;;14.06;37.99;97444.75;5036213;28;20051;-30
2021/12/14 03:07:57;;;;;;;1.50;0.90;;;;;;;14.02;38.06;97439.38;5036281;28;20034;-30
2021/12/14 03:12:56;;;;;;;;;;;;;;;14.06;38.07;97443.97;5036709;28;20119;-30
2021/12/14 03:15:27;;;;;;;1.70;0.80;;;;;;;14.10;37.87;97439.19;5036019;28;19948;-30
2021/12/14 03:17:58;;;;;;;1.38;0.90;;;;;;;14.03;37.96;97440.91;5036048;28;20025;-30
2021/12/14 03:20:30;;;;;;;1.13;0.70;;;;;;;14.02;38.22;97439.38;5036171;28;20388;-30
2021/12/14 03:23:05;;;;;;;1.00;0.60;;;;;;;14.00;38.40;97443.72;5035928;28;20044;-30
2021/12/14 03:25:32;;;;;;;1.52;0.68;;;;;;;13.94;38.35;97443.47;5035858;28;20033;-30
2021/12/14 03:27:58;;;;;;;1.63;0.80;;;;;;;14.01;38.14;97451.47;5034541;28;20045;-30
2021/12/14 03:30:26;;;;;;;1.10;0.70;;;;;;;13.95;38.23;97442.28;5035029;28;20036;-31
2021/12/14 03:32:54;;;;;;;1.48;0.70;;;;;;;14.01;38.38;97437.84;5034436;28;20022;-30
2021/12/14 03:35:21;;;;;;;1.10;0.70;;;;;;;14.05;38.06;97437.00;5035560;28;20048;-30
2021/12/14 03:37:48;;;;;;;1.15;0.70;;;;;;;13.97;37.99;97441.84;5035600;28;20029;-30
2021/12/14 03:40:15;;;;;;;1.70;0.80;;;;;;;13.97;37.94;97441.84;5035893;28;20345;-30
2021/12/14 03:42:42;;;;;;;0.90;0.70;;;;;;;13.98;38.23;97435.19;5035483;28;20030;-30
2021/12/14 03:45:12;;;;;;;0.90;0.55;;;;;;;13.93;38.46;97432.97;5035740;28;20029;-31
2021/12/14 03:47:46;;;;;;;1.27;0.70;;;;;;;13.97;38.29;97437.13;5035745;28;20044;-30
2021/12/14 03:50:16;;;;;;;2.13;0.77;;;;;;;13.98;38.18;97432.44;5035396;28;20041;-30
2021/12/14 03:52:43;;;;;;;1.13;0.50;;;;;;;13.97;38.53;97436.41;5035628;28;20021;-30
2021/12/14 03:55:43;;;;;;;1.00;0.70;;;;;;;13.95;38.37;97439.53;5035235;28;20132;-30
2021/12/14 03:58:15;;;;;;;1.08;0.70;;;;;;;13.97;38.55;97448.03;5034110;28;20029;-30
2021/12/14 04:00:53;;;;;;;1.25;0.80;;;;;;;13.96;38.47;97441.09;5035045;28;20041;-30
2021/12/14 04:03:20;;;;;;;0.68;0.60;;;;;;;14.02;38.56;97444.81;5035082;28;20091;-30
2021/12/14 04:05:47;;;;;;;1.13;0.75;;;;;;;13.98;38.24;97441.41;5033749;28;20029;-30
2021/12/14 04:08:14;;;;;;;1.20;0.70;;;;;;;13.97;38.34;97437.13;5034088;28;20025;-30
2021/12/14 04:10:43;;;;;;;1.05;0.70;;;;;;;13.94;38.74;97442.69;5034913;28;20051;-30
2021/12/14 04:13:15;;;;;;;1.70;0.80;;;;;;;13.95;38.73;97438.78;5035295;28;20029;-30
2021/12/14 04:15:41;;;;;;;0.85;0.55;;;;;;;13.94;38.53;97442.69;5035064;28;20029;-30
2021/12/14 04:18:07;;;;;;;1.00;0.65;;;;;;;13.98;38.32;97438.69;5035016;28;20025;-30
2021/12/14 04:20:37;;;;;;;0.70;0.68;;;;;;;13.94;38.72;97431.78;5034599;28;20029;-30
2021/12/14 04:23:09;;;;;;;1.17;0.70;;;;;;;13.92;38.66;97440.38;5034757;28;20112;-30
2021/12/14 04:25:36;;;;;;;1.30;0.50;;;;;;;14.01;38.43;97437.06;5034626;28;20031;-30
2021/12/14 04:28:07;;;;;;;0.90;0.60;;;;;;;14.01;38.42;97428.88;5034676;28;20399;-30
2021/12/14 04:30:33;;;;;;;3.17;0.85;;;;;;;13.94;38.70;97432.56;5034859;28;20025;-30
2021/12/14 04:33:04;;;;;;;1.05;0.60;;;;;;;13.95;38.88;97433.31;5034966;28;20021;-30
2021/12/14 04:35:35;;;;;;;1.67;0.70;;;;;;;13.94;38.98;97431.78;5034610;28;20030;-30
2021/12/14 04:38:08;;;;;;;0.93;0.55;;;;;;;13.93;38.71;97431.00;5034743;28;20071;-30
2021/12/14 04:51:59;;;;;;;1.63;0.65;;;;;;;13.92;39.31;97424.03;5034397;28;20082;-30
2021/12/14 04:54:42;;;;;;;1.15;0.57;;;;;;;13.92;39.03;97434.16;5034188;28;20075;-30
2021/12/14 04:57:30;;;;;;;1.67;0.73;;;;;;;13.96;38.82;97435.63;5034306;28;20494;-30
2021/12/14 05:00:01;;;;;;;1.30;0.60;;;;;;;13.95;38.61;97428.63;5033659;28;20469;-30
2021/12/14 05:02:31;;;;;;;1.27;0.80;;;;;;;13.94;38.98;97434.50;5033655;28;20103;-30
2021/12/14 05:04:59;;;;;;;1.20;0.68;;;;;;;13.94;38.63;97432.56;5034082;28;20034;-30
2021/12/14 05:09:52;;;;;;;1.77;0.70;;;;;;;13.89;39.15;97430.31;5034028;28;20116;-30
2021/12/14 05:12:23;;;;;;;0.95;0.50;;;;;;;13.90;39.05;97433.81;5033847;28;20026;-30
2021/12/14 05:14:49;;;;;;;1.10;0.60;;;;;;;13.93;38.96;97428.28;5033788;28;20029;-30
2021/12/14 05:17:22;;;;;;;0.98;0.55;;;;;;;13.82;39.11;97433.22;5032300;28;20033;-30
2021/12/14 05:19:49;;;;;;;1.25;0.50;;;;;;;13.91;38.75;97430.66;5033781;28;20070;-30
2021/12/14 05:22:20;;;;;;;1.25;0.60;;;;;;;13.88;39.02;97428.78;5033499;28;20033;-30
2021/12/14 05:24:49;;;;;;;1.05;0.65;;;;;;;13.86;38.89;97425.69;5034117;28;20498;-31
2021/12/14 05:27:19;;;;;;;1.15;0.60;;;;;;;13.92;38.93;97431.44;5033653;28;20029;-30
2021/12/14 05:29:45;;;;;;;1.02;0.60;;;;;;;13.93;38.78;97436.47;5033689;28;20022;-30
2021/12/14 05:32:15;;;;;;;1.42;0.73;;;;;;;13.91;38.71;97430.66;5032289;28;20025;-30
2021/12/14 05:34:42;;;;;;;1.02;0.57;;;;;;;13.98;38.69;97427.75;5033511;28;20022;-31
2021/12/14 05:37:11;;;;;;;0.90;0.50;;;;;;;13.98;38.69;97437.91;5033373;28;20032;-30
2021/12/14 05:40:02;;;;;;;1.20;0.60;;;;;;;13.93;38.98;97431.00;5033465;28;20479;-30
2021/12/14 05:45:21;;;;;;;0.90;0.75;;;;;;;13.86;38.81;97433.13;5033529;28;20087;-30
2021/12/14 05:47:58;;;;;;;2.00;0.80;;;;;;;13.85;38.84;97434.31;5031998;28;20376;-30
2021/12/14 05:50:29;;;;;;;1.75;1.10;;;;;;;13.83;38.74;97426.56;5033521;28;20026;-30
2021/12/14 05:52:55;;;;;;;1.60;0.98;;;;;;;13.91;38.50;97421.72;5033181;28;20018;-30
2021/12/14 05:55:33;;;;;;;1.65;0.90;;;;;;;13.92;38.53;97426.75;5033305;28;20432;-30
2021/12/14 05:58:00;;;;;;;1.20;0.85;;;;;;;13.86;38.75;97431.16;5033409;28;20029;-30
2021/12/14 06:00:29;;;;;;;1.35;0.88;;;;;;;13.89;38.59;97429.53;5033253;28;20049;-31
2021/12/14 06:02:54;;;;;;;2.10;0.77;;;;;;;13.86;38.44;97441.28;5032997;28;20060;-30
2021/12/14 06:05:22;;;;;;;0.88;0.70;;;;;;;13.79;38.89;97434.06;5033215;28;20025;-30
2021/12/14 06:07:49;;;;;;;1.55;0.77;;;;;;;13.83;38.97;97439.44;5033091;28;20057;-30
2021/12/14 06:10:17;;;;;;;1.92;0.90;;;;;;;13.88;38.64;97434.22;5032965;28;20021;-30
2021/12/14 06:12:43;;;;;;;1.30;0.70;;;;;;;13.89;38.67;97441.22;5033052;28;20014;-30
2021/12/14 06:15:14;;;;;;;1.42;0.80;;;;;;;13.87;38.92;97429.97;5031948;28;20033;-30
2021/12/14 06:17:41;;;;;;;1.23;0.90;;;;;;;13.85;38.80;97440.53;5032966;28;20076;-30
2021/12/14 06:20:12;;;;;;;2.58;0.80;;;;;;;13.84;38.75;97439.00;5032961;28;20029;-31
2021/12/14 06:22:39;;;;;;;1.85;0.90;;;;;;;13.84;38.90;97444.47;5032838;28;20117;-31
2021/12/14 06:25:13;;;;;;;1.73;0.90;;;;;;;13.87;39.13;97443.59;5033038;28;20026;-31
2021/12/14 06:27:39;;;;;;;1.58;0.90;;;;;;;13.84;38.83;97444.47;5032959;28;20487;-30
2021/12/14 06:30:05;;;;;;;2.33;1.52;;;;;;;13.80;38.83;97437.53;5032922;28;20488;-31
2021/12/14 06:32:38;;;;;;;2.25;0.85;;;;;;;13.85;38.90;97437.78;5032874;28;20025;-30
2021/12/14 06:35:16;;;;;;;1.83;0.90;;;;;;;13.86;38.74;97441.28;5030550;28;20164;-30
2021/12/14 06:38:21;;;;;;;1.10;0.70;;;;;;;13.79;39.00;97447.69;5014130;28;20113;-30
2021/12/14 06:40:58;;;;;;;1.52;0.90;;;;;;;13.85;39.04;97454.16;5047797;28;20030;-30
2021/12/14 06:43:30;;;;;;;2.33;1.23;;;;;;;13.90;39.08;97447.44;5030698;28;20041;-30
2021/12/14 06:45:59;;;;;;;1.08;0.70;;;;;;;13.83;38.83;97455.78;5030646;28;20037;-30
2021/12/14 06:48:38;;;;;;;2.30;1.02;;;;;;;13.81;39.16;97455.44;5030924;28;20030;-31
2021/12/14 06:51:06;;;;;;;2.05;0.90;;;;;;;13.83;38.96;97464.75;5030868;28;20108;-31
2021/12/14 06:53:33;;;;;;;2.13;0.98;;;;;;;13.83;38.88;97462.00;5017486;28;20441;-30
2021/12/14 06:56:01;;;;;;;1.30;0.88;;;;;;;13.85;38.94;97473.25;5011170;28;20030;-30
2021/12/14 06:58:31;;;;;;;1.00;0.82;;;;;;;13.79;39.04;97474.94;5009330;28;20030;-30
2021/12/14 07:01:02;;;;;;;1.50;0.85;;;;;;;13.83;38.83;97481.09;5010866;28;20084;-30
2021/12/14 07:03:39;;;;;;;2.45;1.00;;;;;;;13.81;38.72;97480.75;5010965;28;20114;-31
2021/12/14 07:06:06;;;;;;;1.33;0.70;;;;;;;13.89;39.04;97484.84;5014103;28;20030;-30
2021/12/14 07:08:32;;;;;;;1.33;0.60;;;;;;;13.84;39.04;97490.81;5014478;28;20403;-30
2021/12/14 07:10:57;;;;;;;1.77;0.88;;;;;;;13.89;38.97;97490.31;5013803;28;20029;-30
2021/12/14 07:13:33;;;;;;;2.55;1.00;;;;;;;13.86;38.96;97493.88;5012883;28;20125;-30
2021/12/14 07:15:59;;;;;;;1.42;0.80;;;;;;;13.89;38.82;97482.13;5014451;28;20447;-30
2021/12/14 07:18:28;;;;;;;1.55;0.80;;;;;;;13.80;39.04;97492.84;5012748;28;20485;-30
2021/12/14 07:20:55;;;;;;;1.58;0.68;;;;;;;13.82;38.96;97490.47;5012719;28;20022;-30
2021/12/14 07:23:25;;;;;;;2.17;1.00;;;;;;;13.83;39.27;97485.78;5013906;28;20087;-30
2021/12/14 07:26:13;;;;;;;1.17;0.77;;;;;;;13.81;39.11;97490.88;5014074;28;20025;-30
2021/12/14 07:28:41;;;;;;;1.65;1.02;;;;;;;13.79;39.38;97499.47;5029135;28;20029;-30
2021/12/14 07:31:25;;;;;;;1.95;0.80;;;;;;;13.85;38.95;97505.19;5035309;28;20021;-30
2021/12/14 07:33:54;;;;;;;1.90;0.90;;;;;;;13.81;39.05;97501.78;5035920;28;20025;-30
2021/12/14 07:36:28;;;;;;;1.30;0.70;;;;;;;13.89;38.86;97509.41;5035825;28;20025;-30
2021/12/14 07:38:59;;;;;;;1.83;0.90;;;;;;;13.93;39.43;97515.56;5035856;28;20040;-30
2021/12/14 07:41:28;;;;;;;2.00;1.00;;;;;;;13.81;39.27;97507.25;5035880;28;20095;-30
2021/12/14 07:44:00;;;;;;;2.78;1.17;;;;;;;13.83;39.43;97522.00;5034402;28;20442;-31
2021/12/14 07:46:34;;;;;;;2.55;0.90;;;;;;;13.89;39.20;97525.00;5034942;28;20037;-31
2021/12/14 07:49:17;;;;;;;1.02;0.77;;;;;;;13.89;39.46;97523.03;5035474;28;20151;-30
2021/12/14 07:51:44;;;;;;;1.58;0.85;;;;;;;13.87;39.46;97525.41;5035322;28;20032;-30
2021/12/14 07:54:25;;;;;;;1.58;1.00;;;;;;;13.89;39.32;97525.00;5035363;28;20423;-30
2021/12/14 07:56:57;;;;;;;1.73;1.13;;;;;;;13.89;39.27;97530.44;5035215;28;20427;-30
2021/12/14 07:59:27;;;;;;;1.65;0.93;;;;;;;13.84;39.64;97528.22;5035343;28;20483;-30
2021/12/14 08:02:16;;;;;;;1.20;1.00;;;;;;;13.97;39.49;97529.13;5035098;28;20052;-30
2021/12/14 08:04:47;;;;;;;1.30;0.90;;;;;;;13.91;39.71;97526.09;5034113;28;20132;-30
2021/12/14 08:07:27;;;;;;;2.25;1.13;;;;;;;13.93;39.35;97528.41;5035067;28;20467;-30
2021/12/14 08:09:54;;;;;;;4.13;1.10;;;;;;;13.94;39.64;97532.69;5035370;28;20454;-30
2021/12/14 08:12:43;;;;;;;3.72;1.10;;;;;;;13.89;39.39;97533.16;5035056;28;20064;-30
2021/12/14 08:15:38;;;;;;;2.97;1.05;;;;;;;13.88;39.43;97540.56;5034682;28;20017;-30
2021/12/14 08:18:13;;;;;;;3.35;1.20;;;;;;;13.89;39.85;97533.94;5034989;28;20029;-30
2021/12/14 08:20:48;;;;;;;1.20;0.90;;;;;;;13.87;39.68;97536.31;5034694;28;20043;-30
2021/12/14 08:23:16;;;;;;;1.35;0.90;;;;;;;13.93;39.70;97534.66;5034995;28;20025;-30
2021/12/14 08:25:42;;;;;;;1.83;1.10;;;;;;;13.87;40.07;97535.53;5034611;28;20026;-30
2021/12/14 08:28:09;;;;;;;1.25;0.77;;;;;;;13.95;39.54;97543.19;5034761;28;20457;-30
2021/12/14 08:30:38;;;;;;;1.85;1.10;;;;;;;13.93;40.01;97534.66;5034774;28;20104;-30
2021/12/14 08:33:16;;;;;;;1.45;1.05;;;;;;;13.98;39.88;97541.53;5035031;28;20351;-31
2021/12/14 08:35:42;;;;;;;1.13;0.68;;;;;;;13.90;39.93;97538.19;5034529;28;20086;-30
2021/12/14 08:38:08;;;;;;;1.42;1.10;;;;;;;13.91;39.72;97542.47;5034595;28;20021;-30
2021/12/14 08:40:44;;;;;;;1.60;0.80;;;;;;;13.97;39.80;97523.66;5034484;28;20033;-30
2021/12/14 08:43:20;;;;;;;1.88;0.90;;;;;;;13.98;39.71;97547.00;5034212;28;20036;-30
2021/12/14 08:45:57;;;;;;;1.10;0.80;;;;;;;13.98;39.88;97534.13;5034341;28;20025;-31
2021/12/14 08:48:26;;;;;;;1.17;0.90;;;;;;;13.90;40.02;97540.94;5034358;28;20026;-30
2021/12/14 08:51:15;;;;;;;1.83;1.00;;;;;;;13.92;39.95;97538.56;5032875;28;20025;-30
2021/12/14 08:53:45;;;;;;;1.40;0.90;;;;;;;13.93;40.25;97539.31;5033894;28;20029;-30
2021/12/14 08:56:12;;;;;;;1.60;0.90;;;;;;;13.95;40.14;97537.72;5034303;28;20034;-30
2021/12/14 08:58:40;;;;;;;2.47;1.10;;;;;;;13.89;40.61;97539.41;5034059;28;20479;-30
2021/12/14 09:01:17;;;;;;;2.03;1.05;;;;;;;13.94;40.35;97535.41;5034144;28;20037;-30
2021/12/14 09:04:02;;;;;;;2.13;1.23;;;;;;;13.92;40.27;97544.00;5033948;28;20088;-30
2021/12/14 09:06:34;;;;;;;2.60;1.17;;;;;;;13.86;40.69;97547.63;5033944;28;20104;-30
2021/12/14 09:09:05;;;;;;;1.67;0.90;;;;;;;13.90;40.22;97543.66;5034298;28;20037;-30
2021/12/14 09:11:33;;;;;;;1.38;1.00;;;;;;;13.80;40.66;97544.66;5033724;28;20068;-30
2021/12/14 09:13:59;;;;;;;1.52;1.20;;;;;;;13.48;42.03;97542.53;5033100;28;20025;-27
2021/12/14 09:16:28;;;;;;;2.38;1.40;;;;;;;13.67;41.22;97535.56;5032580;28;20017;-28
2021/12/14 09:19:25;;;;;;;2.83;1.33;;;;;;;13.99;40.82;97543.84;5024910;28;20030;-28
2021/12/14 09:21:55;;;;;;;2.35;1.17;;;;;;;14.07;40.48;97535.53;5033582;28;20021;-28
2021/12/14 09:24:25;;;;;;;2.17;1.02;;;;;;;14.08;40.26;97539.81;5033337;28;20448;-28
2021/12/14 09:26:57;;;;;;;6.15;1.33;;;;;;;14.13;40.05;97536.56;5031573;28;20387;-28
2021/12/14 09:29:26;;;;;;;2.22;1.20;;;;;;;14.11;39.99;97536.97;5031526;28;20025;-28
2021/12/14 09:31:54;;;;;;;2.00;0.80;;;;;;;14.12;40.31;97543.97;5032553;28;20025;-28
2021/12/14 09:34:23;;;;;;;1.77;0.90;;;;;;;14.11;40.17;97531.53;5033187;28;20100;-28
2021/12/14 09:36:50;;;;;;;2.38;1.10;;;;;;;14.06;40.16;97525.81;5033571;28;20028;-28
2021/12/14 09:39:33;;;;;;;1.75;1.13;;;;;;;14.14;40.10;97527.97;5033499;28;20116;-28
2021/12/14 09:42:03;;;;;;;3.33;1.20;;;;;;;14.16;40.13;97528.31;5033580;28;20032;-28
2021/12/14 09:44:33;;;;;;;1.73;0.93;;;;;;;14.12;40.14;97529.56;5033482;28;20048;-28
2021/12/14 09:47:09;;;;;;;2.45;1.30;;;;;;;14.14;40.18;97522.50;5033584;28;20080;-28
2021/12/14 09:49:35;;;;;;;2.22;0.98;;;;;;;14.20;39.88;97520.06;5033515;28;20029;-28
2021/12/14 09:52:08;;;;;;;2.05;1.05;;;;;;;14.14;39.88;97510.81;5032524;28;20032;-28
2021/12/14 09:54:35;;;;;;;1.70;0.95;;;;;;;14.10;40.05;97510.88;5033211;28;20018;-28
2021/12/14 09:57:29;;;;;;;1.63;1.00;;;;;;;14.16;40.17;97509.22;5033350;28;20034;-28
2021/12/14 09:59:59;;;;;;;2.53;1.20;;;;;;;14.11;40.34;97506.97;5031862;28;20041;-28
2021/12/14 10:02:34;;;;;;;1.77;0.95;;;;;;;14.19;39.96;97507.59;5033235;28;20434;-28
2021/12/14 10:05:06;;;;;;;2.22;1.27;;;;;;;14.13;40.35;97506.56;5033339;28;20025;-28
2021/12/14 10:07:32;;;;;;;1.40;0.90;;;;;;;14.14;40.38;97500.69;5033295;28;20021;-28
2021/12/14 10:10:00;;;;;;;2.92;1.13;;;;;;;14.15;40.01;97501.44;5033149;28;20471;-28
2021/12/14 10:15:14;;;;;;;3.08;1.10;;;;;;;14.12;40.13;97497.59;5033239;28;20045;-28
2021/12/14 10:17:41;;;;;;;2.08;1.05;;;;;;;14.17;40.05;97494.38;5033200;28;20127;-28
2021/12/14 10:20:11;;;;;;;1.58;1.10;;;;;;;14.18;39.99;97489.69;5033134;28;20040;-28
2021/12/14 10:22:37;;;;;;;2.00;1.00;;;;;;;14.14;40.18;97487.03;5033237;28;20389;-28
2021/12/14 10:25:08;;;;;;;1.63;0.93;;;;;;;14.16;40.04;97481.16;5032952;28;20045;-28
2021/12/14 10:27:35;;;;;;;2.53;1.00;;;;;;;14.12;40.12;97481.22;5032844;28;20026;-28
2021/12/14 10:30:05;;;;;;;2.17;1.30;;;;;;;14.16;40.04;97489.34;5032985;28;20032;-28
2021/12/14 10:32:34;;;;;;;1.60;1.15;;;;;;;14.14;40.26;97483.53;5033095;28;20053;-28
2021/12/14 10:35:08;;;;;;;1.85;0.98;;;;;;;14.22;39.92;97479.44;5032805;28;20052;-28
2021/12/14 10:38:11;;;;;;;1.40;0.75;;;;;;;14.13;40.47;97484.72;5033355;28;20152;-28
2021/12/14 10:43:17;;;;;;;1.92;1.25;;;;;;;14.19;40.12;97469.41;5036687;28;20115;-28
2021/12/14 10:45:55;;;;;;;2.10;1.10;;;;;;;14.24;39.88;97472.38;5036557;28;20053;-28
2021/12/14 10:48:24;;;;;;;1.17;1.02;;;;;;;14.19;39.83;97474.88;5036485;28;20025;-28
2021/12/14 10:50:53;;;;;;;2.03;1.08;;;;;;;14.19;40.18;97466.69;5036479;28;20033;-28
2021/12/14 10:53:20;;;;;;;2.10;1.52;;;;;;;14.25;39.98;97473.91;5036491;28;20023;-28
2021/12/14 10:55:54;;;;;;;1.92;1.30;;;;;;;14.24;40.15;97482.53;5036616;28;20447;-28
2021/12/14 10:58:23;;;;;;;2.25;1.10;;;;;;;14.22;40.10;97479.44;5036557;28;20037;-28
2021/12/14 11:01:08;;;;;;;3.85;0.90;;;;;;;14.21;39.93;97481.44;5036183;28;20549;-28
2021/12/14 11:03:43;;;;;;;1.85;1.00;;;;;;;14.24;40.15;97477.84;5036219;28;20434;-28
2021/12/14 11:06:12;;;;;;;1.50;1.05;;;;;;;14.24;40.14;97474.34;5034877;28;20037;-28
2021/12/14 11:08:57;;;;;;;2.05;1.20;;;;;;;14.33;39.89;97469.09;5036334;28;20471;-28
2021/12/14 11:11:35;;;;;;;2.25;1.10;;;;;;;14.25;40.01;97467.69;5036119;28;20022;-28
2021/12/14 11:14:05;;;;;;;2.38;1.00;;;;;;;14.34;39.64;97462.44;5035928;28;20031;-28
2021/12/14 11:19:39;;;;;;;2.60;1.08;;;;;;;14.33;40.11;97460.91;5036078;28;20027;-28
2021/12/14 11:22:39;;;;;;;2.20;1.25;;;;;;;14.28;39.67;97461.41;5036063;28;20029;-28
2021/12/14 11:25:11;;;;;;;2.60;1.25;;;;;;;14.29;39.84;97455.50;5035580;28;20041;-28
2021/12/14 11:27:48;;;;;;;2.92;1.38;;;;;;;14.29;40.04;97462.94;5035758;28;20021;-28
2021/12/14 11:30:21;;;;;;;2.50;1.83;;;;;;;14.30;39.81;97461.75;5034548;28;20028;-28
2021/12/14 11:33:05;;;;;;;3.90;1.52;;;;;;;14.25;39.87;97464.97;5034486;28;20034;-28
2021/12/14 11:35:37;;;;;;;3.58;1.75;;;;;;;14.36;39.66;97451.84;5035579;28;20053;-28
2021/12/14 11:38:10;;;;;;;3.80;2.20;;;;;;;14.43;39.56;97462.63;5035724;28;20483;-28
2021/12/14 11:40:36;;;;;;;;;;;;;;;14.40;39.90;97460.75;5036355;28;20033;-28
2021/12/14 11:43:12;;;;;;;4.40;2.13;;;;;;;14.36;39.84;97452.59;5035686;28;19959;-28
2021/12/14 11:45:38;;;;;;;4.15;2.28;;;;;;;14.42;39.90;97450.19;5035527;28;20064;-28
2021/12/14 11:48:04;;;;;;;3.92;1.95;;;;;;;14.40;39.68;97457.25;5035529;28;20037;-28
2021/12/14 11:50:41;;;;;;;5.45;2.53;;;;;;;14.36;39.48;97452.59;5034773;28;20506;-28
2021/12/14 11:53:06;;;;;;;3.90;2.40;;;;;;;14.33;40.07;97447.25;5035509;28;20079;-28
2021/12/14 11:55:38;;;;;;;5.35;2.45;;;;;;;14.37;39.66;97451.41;5035343;28;20025;-28
2021/12/14 11:58:09;;;;;;;5.82;2.97;;;;;;;14.37;39.78;97437.78;5034058;28;20033;-28
2021/12/14 12:00:41;;;;;;;5.72;2.72;;;;;;;14.36;39.98;97438.97;5033808;28;20049;-28
2021/12/14 12:03:45;;;;;;;5.20;2.42;;;;;;;14.39;39.84;97434.63;5035423;28;20037;-28
2021/12/14 12:06:43;;;;;;;5.22;2.60;;;;;;;14.41;39.77;97440.44;5034867;28;20029;-28
2021/12/14 12:09:32;;;;;;;4.03;2.30;;;;;;;14.38;39.80;97433.84;5035127;28;20033;-28
2021/12/14 12:12:07;;;;;;;5.20;2.50;;;;;;;14.36;39.99;97443.66;5035182;28;20025;-28
2021/12/14 12:14:38;;;;;;;4.70;2.65;;;;;;;14.45;39.67;97437.66;5034885;28;20018;-28
2021/12/14 12:17:09;;;;;;;4.07;2.53;;;;;;;14.44;39.63;97425.97;5034978;28;20037;-28
2021/12/14 12:19:36;;;;;;;4.68;2.70;;;;;;;14.38;39.82;97420.19;5035050;28;20025;-28
2021/12/14 12:22:15;;;;;;;4.43;2.85;;;;;;;14.38;39.74;97420.19;5034690;28;20032;-28
2021/12/14 12:24:40;;;;;;;8.07;2.22;;;;;;;14.44;39.64;97420.50;5034698;28;20479;-28
2021/12/14 12:27:23;;;;;;;5.65;2.60;;;;;;;14.34;39.97;97416.03;5034702;28;20025;-28
2021/12/14 12:30:21;;;;;;;4.27;2.43;;;;;;;14.38;39.97;97409.28;5034765;28;20057;-28
2021/12/14 12:32:47;;;;;;;3.30;2.08;;;;;;;14.36;40.05;97403.47;5034301;28;20033;-28